createdAt,value
2023-05-15T00:02:03.238Z,98.0
2023-05-15T00:07:03.245Z,98.2
2023-05-15T00:12:03.237Z,98.3
2023-05-15T00:17:03.338Z,98.1
2023-05-15T00:22:03.282Z,98.0
2023-05-15T00:27:03.248Z,97.8
2023-05-15T00:32:03.258Z,97.7
2023-05-15T00:37:03.258Z,97.5
2023-05-15T00:42:03.267Z,97.4
2023-05-15T00:47:03.373Z,97.2
2023-05-15T00:52:03.294Z,97.2
2023-05-15T00:57:03.283Z,97.3
2023-05-15T01:02:03.322Z,97.5
2023-05-15T01:02:41.661Z,97.3
2023-05-15T01:07:03.284Z,97.3
2023-05-15T01:12:03.295Z,97.1
2023-05-15T01:17:03.377Z,96.8
2023-05-15T01:22:03.313Z,96.5
2023-05-15T01:27:03.292Z,96.4
2023-05-15T01:32:03.308Z,96.8
2023-05-15T01:37:03.306Z,96.8
2023-05-15T01:42:03.304Z,97.3
2023-05-15T01:47:03.336Z,97.9
2023-05-15T01:52:03.324Z,98.0
2023-05-15T01:57:03.309Z,98.5
2023-05-15T02:02:03.449Z,98.9
2023-05-15T02:07:03.312Z,99.6
2023-05-15T02:12:03.319Z,99.6
2023-05-15T02:17:03.351Z,99.8
2023-05-15T02:22:03.342Z,99.6
2023-05-15T02:27:03.332Z,99.7
2023-05-15T02:32:03.490Z,99.7
2023-05-15T02:37:03.330Z,99.8
2023-05-15T02:42:03.342Z,99.9
2023-05-15T02:47:03.365Z,99.9
2023-05-15T02:52:03.362Z,100.0
2023-05-15T02:57:03.348Z,100.0
2023-05-15T03:02:03.344Z,100.0
2023-05-15T03:07:03.365Z,100.0
2023-05-15T03:12:03.350Z,100.0
2023-05-15T03:17:03.419Z,100.0
2023-05-15T03:22:03.371Z,100.0
2023-05-15T03:27:03.356Z,100.0
2023-05-15T03:32:03.354Z,100.0
2023-05-15T03:37:03.367Z,100.0
2023-05-15T03:42:03.366Z,100.0
2023-05-15T03:47:03.628Z,100.0
2023-05-15T03:52:03.391Z,100.0
2023-05-15T03:57:03.380Z,100.0
2023-05-15T04:02:05.687Z,100.0
2023-05-15T04:07:03.394Z,100.0
2023-05-15T04:12:03.385Z,100.0
2023-05-15T04:17:03.510Z,100.0
2023-05-15T04:22:03.421Z,100.0
2023-05-15T04:27:03.410Z,100.0
2023-05-15T04:32:03.423Z,100.0
2023-05-15T04:37:03.399Z,100.0
2023-05-15T04:42:03.400Z,100.0
2023-05-15T04:47:03.430Z,100.0
2023-05-15T04:52:03.419Z,100.0
2023-05-15T04:57:03.414Z,100.0
2023-05-15T05:02:03.508Z,100.0
2023-05-15T05:07:03.416Z,99.8
2023-05-15T05:12:03.423Z,100.0
2023-05-15T05:17:03.503Z,100.0
2023-05-15T05:22:03.465Z,100.0
2023-05-15T05:27:03.433Z,100.0
2023-05-15T05:32:03.439Z,100.0
2023-05-15T05:37:03.436Z,100.0
2023-05-15T05:42:03.438Z,100.0
2023-05-15T05:47:03.599Z,99.8
2023-05-15T05:52:03.467Z,99.3
2023-05-15T05:57:03.455Z,98.2
2023-05-15T06:02:03.538Z,96.2
2023-05-15T06:07:03.456Z,95.0
2023-05-15T06:12:03.464Z,91.3
2023-05-15T06:17:03.729Z,92.7
2023-05-15T06:22:03.491Z,91.3
2023-05-15T06:27:03.477Z,89.8
2023-05-15T06:32:03.469Z,88.0
2023-05-15T06:37:03.484Z,87.6
2023-05-15T06:42:03.489Z,88.1
2023-05-15T06:47:03.771Z,86.2
2023-05-15T06:52:03.507Z,86.3
2023-05-15T06:57:03.501Z,85.8
2023-05-15T07:02:03.566Z,88.9
2023-05-15T07:07:03.506Z,88.6
2023-05-15T07:12:03.491Z,88.4
2023-05-15T07:17:03.582Z,88.6
2023-05-15T07:22:03.792Z,87.5
2023-05-15T07:27:03.506Z,87.1
2023-05-15T07:32:03.691Z,86.2
2023-05-15T07:37:03.542Z,86.2
2023-05-15T07:42:03.514Z,85.6
2023-05-15T07:47:03.543Z,84.6
2023-05-15T07:52:03.539Z,84.3
2023-05-15T07:57:03.548Z,82.7
2023-05-15T08:02:03.566Z,79.5
2023-05-15T08:07:03.537Z,80.1
2023-05-15T08:12:03.535Z,78.7
2023-05-15T08:17:03.554Z,76.2
2023-05-15T08:22:03.557Z,74.2
2023-05-15T08:27:03.551Z,70.8
2023-05-15T08:32:03.547Z,68.0
2023-05-15T08:37:03.550Z,64.9
2023-05-15T08:42:03.552Z,63.3
2023-05-15T08:47:03.697Z,62.7
2023-05-15T08:52:03.578Z,61.0
2023-05-15T08:57:03.602Z,59.1
2023-05-15T09:02:03.653Z,58.3
2023-05-15T09:07:03.574Z,57.2
2023-05-15T09:12:03.578Z,55.5
2023-05-15T09:17:03.661Z,55.1
2023-05-15T09:22:03.601Z,56.7
2023-05-15T09:27:03.602Z,56.5
2023-05-15T09:32:03.626Z,56.6
2023-05-15T09:37:03.585Z,57.8
2023-05-15T09:42:03.598Z,54.3
2023-05-15T09:47:03.707Z,55.8
2023-05-15T09:52:03.622Z,55.6
2023-05-15T09:57:03.610Z,57.9
2023-05-15T10:02:03.664Z,61.0
2023-05-15T10:07:03.606Z,58.4
2023-05-15T10:12:03.641Z,58.4
2023-05-15T10:17:03.647Z,59.4
2023-05-15T10:22:03.647Z,60.9
2023-05-15T10:27:03.625Z,59.9
2023-05-15T10:32:03.623Z,60.5
2023-05-15T10:37:03.632Z,59.2
2023-05-15T10:42:03.638Z,58.8
2023-05-15T10:47:03.722Z,57.8
2023-05-15T10:52:03.652Z,57.5
2023-05-15T10:57:03.639Z,58.9
2023-05-15T11:02:03.639Z,59.6
2023-05-15T11:07:03.651Z,58.1
2023-05-15T11:12:03.642Z,55.6
2023-05-15T11:17:03.842Z,56.5
2023-05-15T11:22:03.678Z,56.6
2023-05-15T11:27:03.663Z,57.0
2023-05-15T11:32:03.660Z,58.2
2023-05-15T11:37:03.661Z,58.0
2023-05-15T11:42:03.663Z,58.3
2023-05-15T11:47:03.699Z,60.6
2023-05-15T11:52:03.688Z,60.3
2023-05-15T11:57:03.696Z,59.4
2023-05-15T12:02:03.672Z,61.3
2023-05-15T12:07:03.682Z,61.7
2023-05-15T12:12:03.693Z,61.4
2023-05-15T12:17:03.749Z,62.2
2023-05-15T12:22:03.750Z,63.5
2023-05-15T12:27:03.703Z,64.1
2023-05-15T12:32:03.732Z,65.7
2023-05-15T12:37:03.776Z,64.9
2023-05-15T12:42:03.708Z,64.8
2023-05-15T12:47:03.740Z,66.0
2023-05-15T12:52:03.726Z,64.1
2023-05-15T12:57:03.726Z,64.6
2023-05-15T13:02:03.726Z,65.1
2023-05-15T13:07:03.721Z,63.6
2023-05-15T13:12:03.750Z,64.6
2023-05-15T13:17:03.753Z,66.2
2023-05-15T13:22:03.762Z,65.5
2023-05-15T13:27:03.736Z,64.3
2023-05-15T13:32:03.730Z,64.7
2023-05-15T13:37:03.742Z,65.1
2023-05-15T13:42:03.740Z,65.2
2023-05-15T13:47:03.855Z,64.9
2023-05-15T13:52:03.772Z,65.6
2023-05-15T13:57:03.760Z,66.0
2023-05-15T14:02:03.757Z,67.7
2023-05-15T14:07:03.762Z,68.4
2023-05-15T14:12:03.771Z,67.6
2023-05-15T14:17:03.942Z,68.0
2023-05-15T14:22:03.808Z,68.0
2023-05-15T14:27:03.782Z,66.8
2023-05-15T14:32:03.835Z,66.8
2023-05-15T14:37:03.794Z,65.0
2023-05-15T14:42:03.780Z,65.2
2023-05-15T14:47:03.815Z,65.9
2023-05-15T14:52:03.817Z,64.9
2023-05-15T14:57:03.840Z,65.6
2023-05-15T15:02:03.827Z,65.4
2023-05-15T15:07:03.806Z,65.8
2023-05-15T15:12:03.803Z,65.2
2023-05-15T15:17:03.833Z,65.1
2023-05-15T15:22:03.836Z,65.3
2023-05-15T15:27:03.828Z,66.3
2023-05-15T15:32:03.911Z,67.7
2023-05-15T15:37:03.817Z,67.7
2023-05-15T15:42:05.675Z,68.8
2023-05-15T15:47:03.941Z,69.8
2023-05-15T15:52:03.847Z,71.6
2023-05-15T15:57:03.832Z,71.8
2023-05-15T16:02:03.866Z,72.8
2023-05-15T16:07:03.842Z,73.4
2023-05-15T16:12:03.860Z,74.1
2023-05-15T16:17:04.054Z,75.1
2023-05-15T16:22:03.871Z,75.5
2023-05-15T16:27:03.848Z,75.5
2023-05-15T16:32:03.851Z,75.8
2023-05-15T16:37:03.854Z,75.5
2023-05-15T16:42:03.861Z,74.8
2023-05-15T16:47:03.942Z,75.3
2023-05-15T16:52:03.891Z,76.5
2023-05-15T16:57:03.874Z,76.3
2023-05-15T17:02:03.949Z,76.9
2023-05-15T17:07:03.879Z,76.9
2023-05-15T17:12:03.874Z,76.5
2023-05-15T17:17:04.011Z,76.7
2023-05-15T17:22:03.930Z,77.2
2023-05-15T17:27:03.885Z,78.1
2023-05-15T17:32:03.924Z,79.2
2023-05-15T17:37:03.892Z,78.9
2023-05-15T17:42:03.895Z,78.6
2023-05-15T17:47:03.928Z,77.7
2023-05-15T17:52:03.972Z,77.6
2023-05-15T17:57:03.905Z,78.6
2023-05-15T18:02:04.155Z,79.2
2023-05-15T18:07:03.917Z,79.7
2023-05-15T18:12:03.924Z,79.9
2023-05-15T18:17:03.944Z,80.7
2023-05-15T18:22:03.942Z,80.9
2023-05-15T18:27:03.925Z,82.0
2023-05-15T18:32:03.975Z,83.6
2023-05-15T18:37:03.934Z,87.0
2023-05-15T18:42:03.940Z,89.4
2023-05-15T18:47:04.031Z,90.8
2023-05-15T18:52:03.957Z,91.2
2023-05-15T18:57:03.963Z,91.9
2023-05-15T19:02:03.972Z,92.1
2023-05-15T19:07:03.947Z,92.0
2023-05-15T19:12:03.946Z,91.6
2023-05-15T19:17:04.098Z,91.8
2023-05-15T19:22:03.974Z,91.8
2023-05-15T19:27:03.958Z,91.7
2023-05-15T19:32:04.069Z,93.5
2023-05-15T19:37:03.974Z,96.1
2023-05-15T19:42:03.977Z,97.1
2023-05-15T19:47:03.996Z,97.2
2023-05-15T19:52:03.994Z,99.1
2023-05-15T19:57:03.968Z,98.2
2023-05-15T20:02:03.986Z,98.4
2023-05-15T20:07:03.990Z,99.0
2023-05-15T20:12:03.983Z,99.1
2023-05-15T20:17:04.013Z,99.6
2023-05-15T20:22:04.011Z,99.4
2023-05-15T20:27:04.002Z,99.1
2023-05-15T20:32:04.053Z,100.0
2023-05-15T20:37:04.001Z,100.0
2023-05-15T20:42:04.019Z,100.0
2023-05-15T20:47:04.098Z,100.0
2023-05-15T20:52:04.034Z,100.0
2023-05-15T20:57:04.012Z,100.0
2023-05-15T21:02:04.025Z,100.0
2023-05-15T21:07:04.029Z,99.7
2023-05-15T21:12:04.207Z,99.6
2023-05-15T21:17:04.085Z,99.6
2023-05-15T21:22:04.097Z,99.2
2023-05-15T21:27:04.054Z,99.2
2023-05-15T21:32:04.032Z,99.4
2023-05-15T21:37:04.031Z,98.3
2023-05-15T21:42:04.043Z,98.7
2023-05-15T21:47:04.044Z,98.8
2023-05-15T21:52:04.068Z,97.5
2023-05-15T21:57:04.077Z,97.7
2023-05-15T22:02:04.153Z,98.0
2023-05-15T22:07:04.056Z,98.0
2023-05-15T22:12:04.062Z,98.1
2023-05-15T22:17:04.062Z,97.7
2023-05-15T22:22:04.080Z,97.5
2023-05-15T22:27:04.092Z,97.3
2023-05-15T22:32:04.108Z,96.9
2023-05-15T22:37:04.070Z,96.5
2023-05-15T22:42:04.070Z,96.5
2023-05-15T22:47:04.083Z,96.6
2023-05-15T22:52:04.103Z,96.6
2023-05-15T22:57:04.110Z,96.9
2023-05-15T23:02:04.083Z,97.1
2023-05-15T23:07:04.089Z,96.6
2023-05-15T23:12:04.116Z,96.8
2023-05-15T23:17:04.111Z,96.9
2023-05-15T23:22:04.122Z,96.9
2023-05-15T23:27:04.130Z,97.0
2023-05-15T23:32:04.103Z,96.3
2023-05-15T23:37:04.103Z,96.4
2023-05-15T23:42:04.114Z,96.1
2023-05-15T23:47:04.302Z,95.9
2023-05-15T23:52:04.140Z,95.8
2023-05-15T23:57:04.210Z,95.7
